createdAt,value
2018-07-14T00:01:57.431Z,5.20
2018-07-14T00:07:01.924Z,5.37
2018-07-14T00:12:05.484Z,6.37
2018-07-14T00:17:08.979Z,5.80
2018-07-14T00:22:13.230Z,6.90
2018-07-14T00:27:16.862Z,5.87
2018-07-14T00:32:20.379Z,6.27
2018-07-14T00:37:24.570Z,5.93
2018-07-14T00:42:28.333Z,7.10
2018-07-14T00:47:32.697Z,7.30
2018-07-14T00:52:36.153Z,7.43
2018-07-14T00:57:39.902Z,6.70
2018-07-14T01:02:43.454Z,6.83
2018-07-14T01:07:48.753Z,6.47
2018-07-14T01:12:52.926Z,6.87
2018-07-14T01:17:56.879Z,6.70
2018-07-14T01:23:00.520Z,8.00
2018-07-14T01:28:04.596Z,8.63
2018-07-14T01:33:08.410Z,7.10
2018-07-14T01:38:11.950Z,6.50
2018-07-14T01:43:15.821Z,7.37
2018-07-14T01:48:19.344Z,6.83
2018-07-14T01:53:22.974Z,7.57
2018-07-14T01:58:26.178Z,7.10
2018-07-14T02:03:30.233Z,7.10
2018-07-14T02:08:34.987Z,6.90
2018-07-14T02:13:38.527Z,6.97
2018-07-14T02:18:42.632Z,7.40
2018-07-14T02:23:48.307Z,7.97
2018-07-14T02:28:52.397Z,8.23
2018-07-14T02:33:56.320Z,8.27
2018-07-14T02:39:00.267Z,7.87
2018-07-14T02:44:04.676Z,7.00
2018-07-14T02:49:08.550Z,7.67
2018-07-14T02:54:13.747Z,7.37
2018-07-14T02:59:17.299Z,6.97
2018-07-14T03:04:21.510Z,7.33
2018-07-14T03:09:25.061Z,7.60
2018-07-14T03:14:28.579Z,7.40
2018-07-14T03:19:35.203Z,6.90
2018-07-14T03:24:38.647Z,7.13
2018-07-14T03:29:42.416Z,7.20
2018-07-14T03:34:46.371Z,6.80
2018-07-14T03:39:50.439Z,6.67
2018-07-14T03:44:54.323Z,7.37
2018-07-14T03:49:58.345Z,7.10
2018-07-14T03:55:03.035Z,8.50
2018-07-14T04:00:07.152Z,8.00
2018-07-14T04:05:11.114Z,7.73
2018-07-14T04:10:14.695Z,7.20
2018-07-14T04:15:18.648Z,7.00
2018-07-14T04:20:22.260Z,7.17
2018-07-14T04:25:26.385Z,7.60
2018-07-14T04:30:30.247Z,8.43
2018-07-14T04:35:33.809Z,8.40
2018-07-14T04:40:37.957Z,8.27
2018-07-14T04:45:41.495Z,8.07
2018-07-14T04:50:45.902Z,8.97
2018-07-14T04:55:50.415Z,8.40
2018-07-14T05:00:53.946Z,8.63
2018-07-14T05:05:58.411Z,9.07
2018-07-14T05:11:03.042Z,8.97
2018-07-14T05:16:07.399Z,8.93
2018-07-14T05:21:13.700Z,9.07
2018-07-14T05:26:17.596Z,8.70
2018-07-14T05:31:23.073Z,9.00
2018-07-14T05:36:27.996Z,8.47
2018-07-14T05:41:31.559Z,8.50
2018-07-14T05:46:35.627Z,8.47
2018-07-14T05:51:39.546Z,8.63
2018-07-14T05:56:43.542Z,9.03
2018-07-14T06:01:47.611Z,8.93
2018-07-14T06:06:51.537Z,8.93
2018-07-14T06:11:55.493Z,8.13
2018-07-14T06:16:59.308Z,8.40
2018-07-14T06:22:02.883Z,7.93
2018-07-14T06:27:06.850Z,8.43
2018-07-14T06:32:10.461Z,8.00
2018-07-14T06:37:14.088Z,8.10
2018-07-14T06:42:18.500Z,7.80
2018-07-14T06:47:22.339Z,7.40
2018-07-14T06:52:25.940Z,7.40
2018-07-14T06:57:29.515Z,6.80
2018-07-14T07:02:33.408Z,7.80
2018-07-14T07:07:36.959Z,7.60
2018-07-14T07:12:40.700Z,7.60
2018-07-14T07:17:45.021Z,6.87
2018-07-14T07:22:49.056Z,7.03
2018-07-14T07:27:52.771Z,7.10
2018-07-14T07:32:56.581Z,7.00
2018-07-14T07:38:03.291Z,7.07
2018-07-14T07:43:07.254Z,7.27
2018-07-14T07:48:11.379Z,7.07
2018-07-14T07:53:14.955Z,7.27
2018-07-14T07:58:18.528Z,6.60
2018-07-14T08:03:25.079Z,6.90
2018-07-14T08:08:28.615Z,7.07
2018-07-14T08:13:32.176Z,7.20
2018-07-14T08:18:35.843Z,7.50
2018-07-14T08:23:39.712Z,6.90
2018-07-14T08:28:43.248Z,7.10
2018-07-14T08:33:47.942Z,7.30
2018-07-14T08:38:51.460Z,6.30
2018-07-14T08:43:55.047Z,6.00
2018-07-14T08:48:58.763Z,5.80
2018-07-14T08:54:02.861Z,7.00
2018-07-14T08:59:06.471Z,6.83
2018-07-14T09:04:10.025Z,6.87
2018-07-14T09:09:13.855Z,8.87
2018-07-14T09:14:17.686Z,6.10
2018-07-14T09:19:22.053Z,6.20
2018-07-14T09:24:27.449Z,7.73
2018-07-14T09:29:31.103Z,6.63
2018-07-14T09:34:34.731Z,5.97
2018-07-14T09:39:38.809Z,6.27
2018-07-14T09:44:43.150Z,6.13
2018-07-14T09:49:46.668Z,5.43
2018-07-14T09:54:50.239Z,4.53
2018-07-14T09:59:53.952Z,3.97
2018-07-14T10:04:57.485Z,3.60
2018-07-14T10:10:01.077Z,4.00
2018-07-14T10:15:05.119Z,4.57
2018-07-14T10:20:08.700Z,4.10
2018-07-14T10:25:12.459Z,3.90
2018-07-14T10:30:16.379Z,4.90
2018-07-14T10:35:20.228Z,3.90
2018-07-14T10:40:24.060Z,3.57
2018-07-14T10:45:27.635Z,3.57
2018-07-14T10:50:33.025Z,4.00
2018-07-14T10:55:36.591Z,5.80
2018-07-14T11:00:40.163Z,4.07
2018-07-14T11:05:48.483Z,4.93
2018-07-14T11:10:52.099Z,5.03
2018-07-14T11:15:58.932Z,5.10
2018-07-14T11:21:02.988Z,5.57
2018-07-14T11:26:06.955Z,5.30
2018-07-14T11:31:10.523Z,4.77
2018-07-14T11:36:14.113Z,5.00
2018-07-14T11:41:19.400Z,4.90
2018-07-14T11:46:23.102Z,5.70
2018-07-14T11:51:26.671Z,4.87
2018-07-14T11:56:30.315Z,4.23
2018-07-14T12:01:34.470Z,4.77
2018-07-14T12:06:38.068Z,4.80
2018-07-14T12:11:41.627Z,4.30
2018-07-14T12:16:45.583Z,4.73
2018-07-14T12:21:49.628Z,3.67
2018-07-14T12:26:53.229Z,4.07
2018-07-14T12:31:57.305Z,3.30
2018-07-14T12:37:06.568Z,4.80
2018-07-14T12:42:12.645Z,3.40
2018-07-14T12:47:16.379Z,3.67
2018-07-14T12:52:20.824Z,4.23
2018-07-14T12:57:26.060Z,4.37
2018-07-14T13:02:29.646Z,4.37
2018-07-14T13:07:34.195Z,3.80
2018-07-14T13:12:37.785Z,4.03
2018-07-14T13:17:41.463Z,3.60
2018-07-14T13:22:46.639Z,3.43
2018-07-14T13:27:50.459Z,3.67
2018-07-14T13:32:55.356Z,3.67
2018-07-14T13:37:59.108Z,3.47
2018-07-14T13:43:02.660Z,3.10
2018-07-14T13:48:06.389Z,3.50
2018-07-14T13:53:09.946Z,3.40
2018-07-14T13:58:13.843Z,3.70
2018-07-14T14:03:17.892Z,3.97
2018-07-14T14:08:21.489Z,3.30
2018-07-14T14:13:26.328Z,3.70
2018-07-14T14:18:29.897Z,3.70
2018-07-14T14:23:33.461Z,3.27
2018-07-14T14:28:37.251Z,3.60
2018-07-14T14:33:41.006Z,3.80
2018-07-14T14:38:44.557Z,4.37
2018-07-14T14:43:48.369Z,4.10
2018-07-14T14:48:52.382Z,3.67
2018-07-14T14:53:56.129Z,3.60
2018-07-14T14:58:59.672Z,3.97
2018-07-14T15:04:08.083Z,3.40
2018-07-14T15:09:12.514Z,3.67
2018-07-14T15:14:16.521Z,9.47
2018-07-14T15:19:20.938Z,3.97
2018-07-14T15:24:24.891Z,5.47
2018-07-14T15:29:28.558Z,3.80
2018-07-14T15:34:32.681Z,3.40
2018-07-14T15:39:36.547Z,3.30
2018-07-14T15:44:40.817Z,3.90
2018-07-14T15:49:44.409Z,3.60
2018-07-14T15:54:48.000Z,3.47
2018-07-14T15:59:51.852Z,3.50
2018-07-14T16:04:55.404Z,3.30
2018-07-14T16:09:58.979Z,3.50
2018-07-14T16:15:02.874Z,3.60
2018-07-14T16:20:06.515Z,3.80
2018-07-14T16:25:10.425Z,3.80
2018-07-14T16:30:13.995Z,3.50
2018-07-14T16:35:18.010Z,3.70
2018-07-14T16:40:22.130Z,4.17
2018-07-14T16:45:27.871Z,3.30
2018-07-14T16:50:31.474Z,3.93
2018-07-14T16:55:35.082Z,3.40
2018-07-14T17:00:39.492Z,3.60
2018-07-14T17:05:43.178Z,4.00
2018-07-14T17:10:46.744Z,4.30
2018-07-14T17:15:50.399Z,3.67
2018-07-14T17:20:54.901Z,4.17
2018-07-14T17:25:58.517Z,3.73
2018-07-14T17:31:02.052Z,4.07
2018-07-14T17:36:06.024Z,3.90
2018-07-14T17:41:10.013Z,4.00
2018-07-14T17:46:13.589Z,3.70
2018-07-14T17:51:17.143Z,4.20
2018-07-14T17:56:20.695Z,6.40
2018-07-14T18:01:24.186Z,4.47
2018-07-14T18:06:28.441Z,4.50
2018-07-14T18:11:32.110Z,4.33
2018-07-14T18:16:35.664Z,4.07
2018-07-14T18:21:39.493Z,4.70
2018-07-14T18:26:43.034Z,4.13
2018-07-14T18:31:46.558Z,4.07
2018-07-14T18:36:50.112Z,4.30
2018-07-14T18:41:53.682Z,4.33
2018-07-14T18:46:57.238Z,6.87
2018-07-14T18:52:00.759Z,6.23
2018-07-14T18:57:04.540Z,5.53
2018-07-14T19:02:08.263Z,5.40
2018-07-14T19:07:12.471Z,4.80
2018-07-14T19:12:16.140Z,4.80
2018-07-14T19:17:20.150Z,4.70
2018-07-14T19:22:23.772Z,4.90
2018-07-14T19:27:27.410Z,5.93
2018-07-14T19:32:31.423Z,5.37
2018-07-14T19:37:34.998Z,5.30
2018-07-14T19:42:38.647Z,4.90
2018-07-14T19:47:42.220Z,6.60
2018-07-14T19:52:45.767Z,7.17
2018-07-14T19:57:49.347Z,6.17
2018-07-14T20:02:52.901Z,7.17
2018-07-14T20:07:56.494Z,7.00
2018-07-14T20:13:00.032Z,8.13
2018-07-14T20:18:03.609Z,8.37
2018-07-14T20:23:07.131Z,6.80
2018-07-14T20:28:10.660Z,5.97
2018-07-14T20:33:15.151Z,7.40
2018-07-14T20:38:18.727Z,7.80
2018-07-14T20:43:22.324Z,7.37
2018-07-14T20:48:25.871Z,7.40
2018-07-14T20:53:29.426Z,7.00
2018-07-14T20:58:32.963Z,6.00
2018-07-14T21:03:36.701Z,7.13
2018-07-14T21:08:40.353Z,7.70
2018-07-14T21:13:44.183Z,6.90
2018-07-14T21:18:47.739Z,6.70
2018-07-14T21:23:51.397Z,6.50
2018-07-14T21:28:55.023Z,6.57
2018-07-14T21:33:58.988Z,6.27
2018-07-14T21:39:02.523Z,5.97
2018-07-14T21:44:06.164Z,6.10
2018-07-14T21:49:10.763Z,5.83
2018-07-14T21:54:14.343Z,5.30
2018-07-14T21:59:17.945Z,5.40
2018-07-14T22:04:34.338Z,5.47
2018-07-14T22:09:37.880Z,5.53
2018-07-14T22:14:41.455Z,6.03
2018-07-14T22:19:45.049Z,5.60
2018-07-14T22:24:48.649Z,6.07
2018-07-14T22:29:52.140Z,5.53
2018-07-14T22:34:55.760Z,6.90
2018-07-14T22:40:01.971Z,8.07
2018-07-14T22:45:06.464Z,8.37
2018-07-14T22:50:10.087Z,7.50
2018-07-14T22:55:15.236Z,7.47
2018-07-14T23:00:19.315Z,9.80
2018-07-14T23:05:22.877Z,6.50
2018-07-14T23:10:26.423Z,7.80
2018-07-14T23:15:29.987Z,7.63
2018-07-14T23:20:33.553Z,8.10
2018-07-14T23:25:37.152Z,7.27
2018-07-14T23:30:40.707Z,7.83
2018-07-14T23:35:44.307Z,6.77
2018-07-14T23:40:48.472Z,6.60
2018-07-14T23:45:52.031Z,6.90
2018-07-14T23:50:55.573Z,7.07
2018-07-14T23:55:59.132Z,7.90
